createdAt,value
2023-04-15T00:01:40.566Z,100387.84
2023-04-15T00:04:07.695Z,100395.88
2023-04-15T00:06:34.575Z,100392.09
2023-04-15T00:09:01.782Z,100390.97
2023-04-15T00:11:29.221Z,100395.38
2023-04-15T00:13:56.057Z,100403.28
2023-04-15T00:16:23.269Z,100408.88
2023-04-15T00:18:50.196Z,100398.66
2023-04-15T00:21:17.001Z,100400.94
2023-04-15T00:23:44.423Z,100412.41
2023-04-15T00:26:11.320Z,100409.97
2023-04-15T00:28:38.955Z,100416.06
2023-04-15T00:31:06.069Z,100427.53
2023-04-15T00:33:33.136Z,100414.53
2023-04-15T00:36:00.114Z,100424.41
2023-04-15T00:38:27.172Z,100431.47
2023-04-15T00:40:54.219Z,100427.84
2023-04-15T00:43:22.499Z,100426.84
2023-04-15T00:45:50.312Z,100425.06
2023-04-15T00:48:17.812Z,100431.97
2023-04-15T00:50:44.800Z,100430.16
2023-04-15T00:53:11.705Z,100434.75
2023-04-15T00:55:38.807Z,100439.03
2023-04-15T00:58:05.679Z,100436.88
2023-04-15T01:00:32.675Z,100437.53
2023-04-15T01:02:59.687Z,100442.81
2023-04-15T01:05:27.369Z,100439.50
2023-04-15T01:07:55.433Z,100444.06
2023-04-15T01:10:22.481Z,100456.22
2023-04-15T01:12:49.387Z,100455.41
2023-04-15T01:15:16.604Z,100466.88
2023-04-15T01:17:43.970Z,100471.50
2023-04-15T01:20:12.553Z,100471.34
2023-04-15T01:22:39.892Z,100471.50
2023-04-15T01:25:10.199Z,100464.72
2023-04-15T01:27:39.366Z,100477.03
2023-04-15T01:30:07.494Z,100480.00
2023-04-15T01:32:34.552Z,100484.41
2023-04-15T01:35:01.767Z,100493.59
2023-04-15T01:37:29.420Z,100485.03
2023-04-15T01:39:57.673Z,100495.53
2023-04-15T01:42:24.677Z,100499.66
2023-04-15T01:44:51.478Z,100504.59
2023-04-15T01:47:18.277Z,100505.56
2023-04-15T01:49:45.075Z,100511.16
2023-04-15T01:52:12.030Z,100512.94
2023-04-15T01:54:38.871Z,100519.84
2023-04-15T01:57:06.030Z,100519.19
2023-04-15T01:59:32.855Z,100512.31
2023-04-15T02:02:00.181Z,100527.22
2023-04-15T02:04:27.078Z,100529.84
2023-04-15T02:06:53.991Z,100530.69
2023-04-15T02:09:20.867Z,100534.75
2023-04-15T02:11:47.812Z,100533.38
2023-04-15T02:14:14.817Z,100533.56
2023-04-15T02:16:41.568Z,100536.31
2023-04-15T02:19:09.635Z,100538.13
2023-04-15T02:21:36.435Z,100552.03
2023-04-15T02:24:03.303Z,100546.25
2023-04-15T02:26:32.926Z,100554.13
2023-04-15T02:29:00.155Z,100553.28
2023-04-15T02:31:27.253Z,100563.78
2023-04-15T02:33:54.093Z,100569.03
2023-04-15T02:36:21.878Z,100570.69
2023-04-15T02:38:48.782Z,100575.94
2023-04-15T02:41:15.967Z,100572.50
2023-04-15T02:43:42.793Z,100574.97
2023-04-15T02:46:13.124Z,100574.97
2023-04-15T02:48:39.970Z,100576.63
2023-04-15T02:51:17.038Z,100582.84
2023-04-15T02:53:43.873Z,100592.38
2023-04-15T02:56:11.620Z,100589.75
2023-04-15T02:58:38.487Z,100605.38
2023-04-15T03:01:05.449Z,100602.88
2023-04-15T03:03:32.416Z,100610.63
2023-04-15T03:05:59.444Z,100606.16
2023-04-15T03:08:26.560Z,100597.50
2023-04-15T03:10:54.102Z,100611.41
2023-04-15T03:13:21.615Z,100602.06
2023-04-15T03:15:48.846Z,100611.88
2023-04-15T03:18:15.876Z,100618.78
2023-04-15T03:20:42.870Z,100619.59
2023-04-15T03:23:09.693Z,100626.50
2023-04-15T03:25:37.752Z,100625.56
2023-04-15T03:28:04.620Z,100633.44
2023-04-15T03:30:31.869Z,100637.03
2023-04-15T03:32:58.953Z,100640.31
2023-04-15T03:35:25.868Z,100649.00
2023-04-15T03:37:52.807Z,100653.28
2023-04-15T03:40:21.973Z,100653.28
2023-04-15T03:42:48.773Z,100660.34
2023-04-15T03:45:15.891Z,100666.13
2023-04-15T03:47:42.872Z,100668.91
2023-04-15T03:50:09.939Z,100672.81
2023-04-15T03:52:36.688Z,100675.25
2023-04-15T03:55:03.454Z,100677.63
2023-04-15T03:57:30.316Z,100682.03
2023-04-15T03:59:57.067Z,100681.22
2023-04-15T04:02:24.025Z,100685.78
2023-04-15T04:04:51.189Z,100690.19
2023-04-15T04:07:18.245Z,100695.63
2023-04-15T04:09:47.026Z,100694.47
2023-04-15T04:12:14.288Z,100706.94
2023-04-15T04:14:41.087Z,100711.38
2023-04-15T04:17:08.182Z,100713.69
2023-04-15T04:19:37.678Z,100710.53
2023-04-15T04:22:04.442Z,100715.78
2023-04-15T04:24:31.893Z,100721.03
2023-04-15T04:26:58.651Z,100723.34
2023-04-15T04:29:25.371Z,100738.28
2023-04-15T04:31:52.204Z,100729.06
2023-04-15T04:34:18.988Z,100743.00
2023-04-15T04:36:45.896Z,100746.91
2023-04-15T04:39:12.736Z,100750.38
2023-04-15T04:41:39.528Z,100756.59
2023-04-15T04:44:06.387Z,100765.28
2023-04-15T04:46:33.185Z,100766.69
2023-04-15T04:49:00.075Z,100759.66
2023-04-15T04:51:26.936Z,100772.91
2023-04-15T04:53:54.201Z,100774.56
2023-04-15T04:56:20.992Z,100776.06
2023-04-15T04:58:47.861Z,100782.84
2023-04-15T05:01:14.995Z,100791.53
2023-04-15T05:03:42.196Z,100798.44
2023-04-15T05:06:09.143Z,100794.69
2023-04-15T05:08:37.289Z,100802.56
2023-04-15T05:11:04.869Z,100805.34
2023-04-15T05:13:31.928Z,100813.91
2023-04-15T05:15:58.746Z,100818.19
2023-04-15T05:18:29.437Z,100823.56
2023-04-15T05:20:56.382Z,100828.81
2023-04-15T05:23:23.368Z,100843.47
2023-04-15T05:25:50.216Z,100839.88
2023-04-15T05:28:17.347Z,100853.81
2023-04-15T05:30:44.356Z,100854.50
2023-04-15T05:33:11.269Z,100863.88
2023-04-15T05:35:38.182Z,100865.53
2023-04-15T05:38:05.099Z,100881.16
2023-04-15T05:40:35.212Z,100882.97
2023-04-15T05:43:02.195Z,100901.22
2023-04-15T05:45:29.082Z,100905.91
2023-04-15T05:47:56.055Z,100916.25
2023-04-15T05:50:25.249Z,100920.38
2023-04-15T05:52:52.062Z,100925.78
2023-04-15T05:55:18.904Z,100933.78
2023-04-15T05:57:46.079Z,100942.38
2023-04-15T06:00:13.463Z,100942.22
2023-04-15T06:02:40.443Z,100949.94
2023-04-15T06:05:10.209Z,100956.88
2023-04-15T06:07:37.483Z,100961.28
2023-04-15T06:10:04.789Z,100964.09
2023-04-15T06:12:31.589Z,100958.66
2023-04-15T06:14:59.997Z,100967.50
2023-04-15T06:17:27.144Z,100960.47
2023-04-15T06:19:56.971Z,100969.16
2023-04-15T06:22:24.459Z,100970.97
2023-04-15T06:24:51.884Z,100977.88
2023-04-15T06:27:19.449Z,100983.84
2023-04-15T06:29:46.599Z,100982.03
2023-04-15T06:32:13.430Z,100987.97
2023-04-15T06:34:40.247Z,100998.88
2023-04-15T06:37:07.143Z,101001.06
2023-04-15T06:39:34.077Z,100998.44
2023-04-15T06:42:01.920Z,101012.13
2023-04-15T06:44:30.088Z,101012.81
2023-04-15T06:46:57.987Z,101017.63
2023-04-15T06:49:24.768Z,101028.69
2023-04-15T06:51:51.971Z,101043.88
2023-04-15T06:54:18.926Z,101033.91
2023-04-15T06:56:46.004Z,101047.59
2023-04-15T06:59:13.152Z,101054.38
2023-04-15T07:01:41.155Z,101054.38
2023-04-15T07:04:08.076Z,101065.28
2023-04-15T07:06:35.909Z,101064.72
2023-04-15T07:09:04.010Z,101063.50
2023-04-15T07:11:31.219Z,101073.84
2023-04-15T07:13:58.304Z,101076.19
2023-04-15T07:16:27.158Z,101099.03
2023-04-15T07:18:56.222Z,101095.03
2023-04-15T07:21:23.128Z,101099.59
2023-04-15T07:23:49.936Z,101115.66
2023-04-15T07:26:16.750Z,101110.13
2023-04-15T07:28:43.841Z,101115.50
2023-04-15T07:31:10.879Z,101124.22
2023-04-15T07:33:37.914Z,101125.91
2023-04-15T07:36:04.759Z,101127.56
2023-04-15T07:38:31.640Z,101136.94
2023-04-15T07:40:58.709Z,101146.38
2023-04-15T07:43:25.588Z,101153.69
2023-04-15T07:45:52.430Z,101154.69
2023-04-15T07:48:19.329Z,101163.41
2023-04-15T07:50:46.279Z,101172.78
2023-04-15T07:53:13.880Z,101176.13
2023-04-15T07:55:40.936Z,101174.31
2023-04-15T07:58:07.739Z,101181.09
2023-04-15T08:00:34.611Z,101179.28
2023-04-15T08:03:02.024Z,101188.97
2023-04-15T08:05:29.273Z,101193.69
2023-04-15T08:07:56.871Z,101196.56
2023-04-15T08:10:23.846Z,101200.28
2023-04-15T08:12:51.120Z,101201.25
2023-04-15T08:15:18.082Z,101205.78
2023-04-15T08:17:45.038Z,101207.13
2023-04-15T08:20:12.165Z,101215.44
2023-04-15T08:22:39.231Z,101206.44
2023-04-15T08:25:06.228Z,101209.72
2023-04-15T08:27:33.135Z,101218.84
2023-04-15T08:30:02.734Z,101225.34
2023-04-15T08:32:30.619Z,101226.44
2023-04-15T08:34:57.542Z,101228.91
2023-04-15T08:37:24.484Z,101241.41
2023-04-15T08:39:51.329Z,101235.31
2023-04-15T08:42:20.132Z,101236.97
2023-04-15T08:44:48.665Z,101250.34
2023-04-15T08:47:18.577Z,101245.66
2023-04-15T08:49:45.460Z,101261.44
2023-04-15T08:52:12.677Z,101263.25
2023-04-15T08:54:39.989Z,101267.56
2023-04-15T08:57:07.156Z,101268.50
2023-04-15T08:59:34.009Z,101283.47
2023-04-15T09:02:01.541Z,101267.56
2023-04-15T09:04:28.785Z,101285.16
2023-04-15T09:06:55.588Z,101281.16
2023-04-15T09:09:23.027Z,101291.25
2023-04-15T09:11:51.735Z,101293.44
2023-04-15T09:14:18.839Z,101301.03
2023-04-15T09:16:55.892Z,101305.88
2023-04-15T09:19:23.611Z,101306.28
2023-04-15T09:21:51.631Z,101317.75
2023-04-15T09:24:18.650Z,101317.16
2023-04-15T09:26:45.762Z,101323.50
2023-04-15T09:29:14.233Z,101329.03
2023-04-15T09:31:42.078Z,101333.88
2023-04-15T09:34:09.090Z,101352.00
2023-04-15T09:36:52.308Z,101355.16
2023-04-15T09:39:19.256Z,101364.59
2023-04-15T09:41:46.407Z,101368.59
2023-04-15T09:44:23.294Z,101377.75
2023-04-15T09:46:50.161Z,101380.94
2023-04-15T09:49:18.275Z,101392.88
2023-04-15T09:51:57.623Z,101405.88
2023-04-15T09:54:35.390Z,101409.13
2023-04-15T09:57:06.109Z,101407.91
2023-04-15T09:59:33.014Z,101414.81
2023-04-15T10:02:00.159Z,101417.22
2023-04-15T10:04:28.698Z,101413.47
2023-04-15T10:06:56.372Z,101413.31
2023-04-15T10:09:23.305Z,101419.81
2023-04-15T10:11:50.801Z,101421.63
2023-04-15T10:14:19.151Z,101416.47
2023-04-15T10:16:49.367Z,101425.88
2023-04-15T10:19:19.566Z,101428.47
2023-04-15T10:21:46.972Z,101432.19
2023-04-15T10:24:17.010Z,101439.91
2023-04-15T10:26:44.932Z,101442.66
2023-04-15T10:29:12.123Z,101451.34
2023-04-15T10:31:39.313Z,101455.03
2023-04-15T10:34:06.929Z,101462.38
2023-04-15T10:36:33.819Z,101472.78
2023-04-15T10:39:00.887Z,101477.00
2023-04-15T10:41:31.608Z,101475.50
2023-04-15T10:44:02.913Z,101485.34
2023-04-15T10:46:31.565Z,101477.03
2023-04-15T10:48:58.514Z,101481.22
2023-04-15T10:51:32.757Z,101492.56
2023-04-15T10:54:00.514Z,101483.16
2023-04-15T10:56:29.072Z,101493.19
2023-04-15T10:58:55.967Z,101492.63
2023-04-15T11:01:23.646Z,101490.00
2023-04-15T11:03:52.136Z,101497.75
2023-04-15T11:06:19.254Z,101493.19
2023-04-15T11:08:54.524Z,101499.44
2023-04-15T11:11:21.408Z,101509.16
2023-04-15T11:13:49.789Z,101507.75
2023-04-15T11:16:16.920Z,101503.81
2023-04-15T11:18:53.645Z,101511.16
2023-04-15T11:21:24.927Z,101501.97
2023-04-15T11:23:52.067Z,101510.50
2023-04-15T11:26:19.008Z,101520.19
2023-04-15T11:28:46.627Z,101521.19
2023-04-15T11:31:14.730Z,101516.50
2023-04-15T11:33:51.464Z,101514.78
2023-04-15T11:36:18.373Z,101528.16
2023-04-15T11:38:47.683Z,101528.75
2023-04-15T11:41:14.631Z,101522.09
2023-04-15T11:43:43.928Z,101537.03
2023-04-15T11:46:11.048Z,101529.84
2023-04-15T11:48:42.500Z,101538.78
2023-04-15T11:51:09.359Z,101541.03
2023-04-15T11:53:43.571Z,101539.75
2023-04-15T11:56:11.953Z,101538.63
2023-04-15T11:58:39.559Z,101546.75
2023-04-15T12:01:07.246Z,101541.63
2023-04-15T12:03:44.212Z,101540.78
2023-04-15T12:06:16.953Z,101541.16
2023-04-15T12:08:53.614Z,101542.16
2023-04-15T12:11:21.934Z,101549.00
2023-04-15T12:13:49.710Z,101555.63
2023-04-15T12:16:18.561Z,101553.34
2023-04-15T12:18:47.545Z,101555.38
2023-04-15T12:21:14.596Z,101559.31
2023-04-15T12:23:50.045Z,101567.75
2023-04-15T12:26:17.605Z,101572.19
2023-04-15T12:28:44.600Z,101569.91
2023-04-15T12:31:12.308Z,101582.19
2023-04-15T12:33:40.049Z,101574.00
2023-04-15T12:36:07.169Z,101578.53
2023-04-15T12:38:34.211Z,101582.53
2023-04-15T12:41:01.251Z,101581.88
2023-04-15T12:43:28.069Z,101580.38
2023-04-15T12:45:55.058Z,101583.69
2023-04-15T12:48:22.028Z,101582.53
2023-04-15T12:50:48.915Z,101588.66
2023-04-15T12:53:15.990Z,101578.13
2023-04-15T12:55:42.852Z,101580.28
2023-04-15T12:58:09.792Z,101590.25
2023-04-15T13:00:37.011Z,101595.09
2023-04-15T13:03:06.748Z,101602.53
2023-04-15T13:05:34.116Z,101591.78
2023-04-15T13:08:01.239Z,101598.75
2023-04-15T13:10:28.779Z,101599.75
2023-04-15T13:12:57.129Z,101606.03
2023-04-15T13:15:24.090Z,101610.53
2023-04-15T13:17:53.641Z,101611.34
2023-04-15T13:20:20.599Z,101611.34
2023-04-15T13:22:47.464Z,101609.38
2023-04-15T13:25:14.435Z,101606.75
2023-04-15T13:27:41.372Z,101606.91
2023-04-15T13:30:11.077Z,101620.84
2023-04-15T13:32:38.035Z,101617.69
2023-04-15T13:35:05.572Z,101624.66
2023-04-15T13:37:32.862Z,101627.91
2023-04-15T13:39:59.789Z,101627.75
2023-04-15T13:42:27.729Z,101628.25
2023-04-15T13:44:55.029Z,101643.97
2023-04-15T13:47:22.352Z,101633.56
2023-04-15T13:49:49.290Z,101639.69
2023-04-15T13:52:16.398Z,101645.34
2023-04-15T13:54:43.412Z,101644.34
2023-04-15T13:57:10.354Z,101651.47
2023-04-15T13:59:37.276Z,101646.16
2023-04-15T14:02:04.444Z,101651.19
2023-04-15T14:04:32.656Z,101648.53
2023-04-15T14:07:00.012Z,101653.03
2023-04-15T14:09:28.099Z,101649.53
2023-04-15T14:11:55.002Z,101653.84
2023-04-15T14:14:21.956Z,101660.81
2023-04-15T14:16:49.146Z,101656.47
2023-04-15T14:19:16.248Z,101668.09
2023-04-15T14:21:43.284Z,101670.09
2023-04-15T14:24:10.381Z,101663.28
2023-04-15T14:26:40.427Z,101667.44
2023-04-15T14:29:07.313Z,101665.28
2023-04-15T14:31:34.295Z,101676.75
2023-04-15T14:34:01.381Z,101662.81
2023-04-15T14:36:28.846Z,101668.25
2023-04-15T14:38:59.088Z,101676.25
2023-04-15T14:41:26.198Z,101665.78
2023-04-15T14:43:53.100Z,101673.91
2023-04-15T14:46:20.169Z,101673.25
2023-04-15T14:48:47.005Z,101680.38
2023-04-15T14:51:13.886Z,101676.06
2023-04-15T14:53:40.913Z,101679.41
2023-04-15T14:56:11.074Z,101687.38
2023-04-15T14:58:38.058Z,101687.88
2023-04-15T15:01:05.038Z,101684.69
2023-04-15T15:03:32.144Z,101690.50
2023-04-15T15:05:59.342Z,101697.28
2023-04-15T15:08:26.423Z,101696.94
2023-04-15T15:10:53.333Z,101695.09
2023-04-15T15:13:20.454Z,101694.75
2023-04-15T15:15:49.801Z,101692.59
2023-04-15T15:18:19.434Z,101690.25
2023-04-15T15:20:46.558Z,101699.72
2023-04-15T15:23:13.471Z,101699.22
2023-04-15T15:25:40.562Z,101692.25
2023-04-15T15:28:07.585Z,101706.72
2023-04-15T15:30:34.471Z,101705.91
2023-04-15T15:33:01.344Z,101708.91
2023-04-15T15:35:28.333Z,101705.59
2023-04-15T15:37:55.540Z,101714.56
2023-04-15T15:40:22.432Z,101717.34
2023-04-15T15:42:51.260Z,101718.03
2023-04-15T15:45:18.380Z,101711.75
2023-04-15T15:47:45.373Z,101719.72
2023-04-15T15:50:13.403Z,101725.16
2023-04-15T15:52:40.392Z,101725.50
2023-04-15T15:55:07.789Z,101722.69
2023-04-15T15:57:34.795Z,101725.00
2023-04-15T16:00:11.312Z,101731.50
2023-04-15T16:05:09.214Z,101742.13
2023-04-15T16:07:36.448Z,101734.50
2023-04-15T16:10:03.275Z,101740.13
2023-04-15T16:12:30.066Z,101739.47
2023-04-15T16:14:57.058Z,101739.78
2023-04-15T16:17:24.057Z,101741.75
2023-04-15T16:19:58.684Z,101748.41
2023-04-15T16:22:28.032Z,101749.06
2023-04-15T16:24:54.960Z,101749.22
2023-04-15T16:27:21.928Z,101753.72
2023-04-15T16:29:48.880Z,101756.38
2023-04-15T16:32:17.191Z,101763.34
2023-04-15T16:34:44.158Z,101760.88
2023-04-15T16:37:11.093Z,101768.31
2023-04-15T16:39:38.158Z,101769.34
2023-04-15T16:42:05.271Z,101769.81
2023-04-15T16:44:32.430Z,101769.47
2023-04-15T16:46:59.858Z,101776.31
2023-04-15T16:49:29.309Z,101777.63
2023-04-15T16:51:56.273Z,101777.13
2023-04-15T16:54:23.345Z,101770.50
2023-04-15T16:56:50.289Z,101783.44
2023-04-15T16:59:17.594Z,101780.75
2023-04-15T17:01:44.685Z,101788.88
2023-04-15T17:04:11.873Z,101786.53
2023-04-15T17:06:42.450Z,101793.47
2023-04-15T17:09:09.652Z,101799.13
2023-04-15T17:11:38.791Z,101809.19
2023-04-15T17:14:06.221Z,101807.72
2023-04-15T17:16:33.227Z,101814.28
2023-04-15T17:19:00.151Z,101807.47
2023-04-15T17:21:27.776Z,101811.81
2023-04-15T17:23:55.091Z,101809.44
2023-04-15T17:26:22.685Z,101814.94
2023-04-15T17:28:49.684Z,101817.75
2023-04-15T17:31:16.647Z,101823.19
2023-04-15T17:33:56.353Z,101827.16
2023-04-15T17:36:31.635Z,101832.13
2023-04-15T17:38:58.601Z,101843.53
2023-04-15T17:41:25.767Z,101840.66
2023-04-15T17:43:52.661Z,101850.06
2023-04-15T17:46:19.622Z,101853.50
2023-04-15T17:48:46.777Z,101854.44
2023-04-15T17:51:13.727Z,101854.53
2023-04-15T17:53:40.659Z,101858.97
2023-04-15T17:56:07.655Z,101860.56
2023-04-15T17:58:34.649Z,101860.34
2023-04-15T18:01:01.658Z,101865.28
2023-04-15T18:03:28.759Z,101865.72
2023-04-15T18:05:56.356Z,101866.19
2023-04-15T18:08:23.371Z,101866.81
2023-04-15T18:10:50.247Z,101875.19
2023-04-15T18:13:17.314Z,101878.44
2023-04-15T18:15:45.681Z,101889.31
2023-04-15T18:18:14.214Z,101888.78
2023-04-15T18:20:41.484Z,101894.22
2023-04-15T18:23:08.635Z,101889.06
2023-04-15T18:25:35.765Z,101892.72
2023-04-15T18:28:05.811Z,101900.28
2023-04-15T18:30:32.729Z,101899.72
2023-04-15T18:32:59.768Z,101895.56
2023-04-15T18:35:26.898Z,101901.00
2023-04-15T18:37:53.772Z,101896.53
2023-04-15T18:40:20.738Z,101897.69
2023-04-15T18:42:47.699Z,101904.09
2023-04-15T18:45:14.682Z,101900.22
2023-04-15T18:47:42.179Z,101908.47
2023-04-15T18:50:09.339Z,101905.44
2023-04-15T18:52:36.364Z,101900.59
2023-04-15T18:55:03.742Z,101915.63
2023-04-15T18:57:34.812Z,101915.06
2023-04-15T19:00:04.901Z,101914.53
2023-04-15T19:02:31.957Z,101910.66
2023-04-15T19:04:58.961Z,101927.69
2023-04-15T19:07:25.845Z,101913.88
2023-04-15T19:09:53.331Z,101920.31
2023-04-15T19:12:20.214Z,101915.16
2023-04-15T19:14:47.086Z,101915.34
2023-04-15T19:17:16.350Z,101928.00
2023-04-15T19:19:43.928Z,101930.09
2023-04-15T19:22:10.889Z,101932.22
2023-04-15T19:24:37.749Z,101932.66
2023-04-15T19:27:04.624Z,101940.84
2023-04-15T19:29:31.522Z,101942.97
2023-04-15T19:31:58.369Z,101936.28
2023-04-15T19:34:25.454Z,101939.06
2023-04-15T19:36:52.368Z,101944.66
2023-04-15T19:39:20.021Z,101957.16
2023-04-15T19:41:47.553Z,101949.09
2023-04-15T19:44:14.587Z,101962.47
2023-04-15T19:46:42.291Z,101955.63
2023-04-15T19:49:09.168Z,101961.22
2023-04-15T19:51:36.050Z,101971.91
2023-04-15T19:54:03.045Z,101967.63
2023-04-15T19:56:31.190Z,101973.06
2023-04-15T19:59:00.126Z,101972.34
2023-04-15T20:01:28.406Z,101977.94
2023-04-15T20:03:55.633Z,101977.34
2023-04-15T20:06:22.957Z,101974.00
2023-04-15T20:08:50.105Z,101985.53
2023-04-15T20:11:17.372Z,101989.16
2023-04-15T20:13:44.292Z,101996.25
2023-04-15T20:16:12.698Z,101996.41
2023-04-15T20:18:39.747Z,102001.94
2023-04-15T20:21:06.628Z,102008.22
2023-04-15T20:23:35.548Z,102010.88
2023-04-15T20:26:02.419Z,102009.03
2023-04-15T20:28:29.328Z,102017.13
2023-04-15T20:30:56.356Z,102018.22
2023-04-15T20:33:23.354Z,102023.78
2023-04-15T20:35:50.346Z,102025.72
2023-04-15T20:38:17.328Z,102025.19
2023-04-15T20:40:44.234Z,102027.09
2023-04-15T20:43:11.241Z,102031.72
2023-04-15T20:45:39.666Z,102033.50
2023-04-15T20:48:06.669Z,102037.00
2023-04-15T20:50:33.624Z,102042.28
2023-04-15T20:53:00.644Z,102042.97
2023-04-15T20:55:29.573Z,102037.69
2023-04-15T20:57:58.605Z,102040.47
2023-04-15T21:00:25.582Z,102042.53
2023-04-15T21:02:52.684Z,102045.03
2023-04-15T21:05:19.764Z,102042.53
2023-04-15T21:07:46.773Z,102051.59
2023-04-15T21:10:13.570Z,102048.34
2023-04-15T21:12:41.470Z,102048.34
2023-04-15T21:15:08.836Z,102054.63
2023-04-15T21:17:35.920Z,102048.50
2023-04-15T21:20:02.949Z,102056.56
2023-04-15T21:22:29.892Z,102057.28
2023-04-15T21:24:56.735Z,102053.22
2023-04-15T21:27:23.578Z,102056.69
2023-04-15T21:29:50.476Z,102052.53
2023-04-15T21:32:17.369Z,102050.84
2023-04-15T21:34:44.350Z,102053.78
2023-04-15T21:37:11.201Z,102049.47
2023-04-15T21:39:38.058Z,102058.34
2023-04-15T21:42:05.011Z,102063.50
2023-04-15T21:44:31.938Z,102065.44
2023-04-15T21:46:59.258Z,102056.84
2023-04-15T21:49:26.076Z,102056.25
2023-04-15T21:51:52.882Z,102060.84
2023-04-15T21:54:19.916Z,102071.41
2023-04-15T21:56:48.021Z,102063.59
2023-04-15T21:59:14.839Z,102073.47
2023-04-15T22:01:41.656Z,102069.16
2023-04-15T22:04:10.015Z,102078.72
2023-04-15T22:06:36.933Z,102080.53
2023-04-15T22:09:03.850Z,102081.53
2023-04-15T22:11:31.224Z,102085.69
2023-04-15T22:13:58.845Z,102084.84
2023-04-15T22:16:26.863Z,102087.66
2023-04-15T22:18:54.700Z,102091.25
2023-04-15T22:21:21.575Z,102092.09
2023-04-15T22:23:49.010Z,102090.41
2023-04-15T22:26:15.961Z,102088.75
2023-04-15T22:28:42.890Z,102086.22
2023-04-15T22:31:10.225Z,102092.63
2023-04-15T22:33:37.110Z,102096.09
2023-04-15T22:36:04.003Z,102094.41
2023-04-15T22:38:31.191Z,102104.00
2023-04-15T22:40:58.630Z,102098.75
2023-04-15T22:43:26.307Z,102100.53
2023-04-15T22:45:55.357Z,102103.31
2023-04-15T22:48:22.615Z,102108.47
2023-04-15T22:50:49.782Z,102105.94
2023-04-15T22:53:17.834Z,102101.91
2023-04-15T22:55:45.769Z,102097.72
2023-04-15T22:58:12.618Z,102108.25
2023-04-15T23:00:39.571Z,102103.00
2023-04-15T23:03:06.840Z,102103.00
2023-04-15T23:05:34.347Z,102108.25
2023-04-15T23:08:01.324Z,102103.16
2023-04-15T23:10:28.331Z,102104.22
2023-04-15T23:12:55.087Z,102105.19
2023-04-15T23:15:21.904Z,102108.09
2023-04-15T23:17:48.758Z,102107.38
2023-04-15T23:20:16.646Z,102111.72
2023-04-15T23:22:43.654Z,102114.34
2023-04-15T23:25:10.437Z,102124.06
2023-04-15T23:27:37.301Z,102117.94
2023-04-15T23:30:04.557Z,102121.69
2023-04-15T23:32:31.387Z,102112.94
2023-04-15T23:34:58.289Z,102116.69
2023-04-15T23:37:25.041Z,102114.06
2023-04-15T23:39:51.895Z,102115.03
2023-04-15T23:42:18.795Z,102129.06
2023-04-15T23:44:45.692Z,102118.75
2023-04-15T23:47:12.635Z,102117.06
2023-04-15T23:49:41.163Z,102124.16
2023-04-15T23:52:08.111Z,102119.00
2023-04-15T23:54:34.976Z,102116.38
2023-04-15T23:57:01.975Z,102117.91
2023-04-15T23:59:28.767Z,102125.69
